Time;durP1;ratioP1;P1;durP2;ratioP2;P2;SDS_P1;SDS_P2;PMS_P1;PMS_P2;Temp;Humidity;BMP_temperature;BMP_pressure;BME280_temperature;BME280_humidity;BME280_pressure;Samples;Min_cycle;Max_cycle;Signal;HPM_P1;HPM_P2
2023/05/18 00:02:02;;;;;;;10.27;2.60;;;7.60;77.00;;;;;;5011541;28;20527;-79
2023/05/18 00:04:30;;;;;;;10.18;2.65;;;7.20;78.00;;;;;;5013468;28;20516;-78
2023/05/18 00:06:55;;;;;;;6.88;2.53;;;7.10;78.40;;;;;;5012246;28;20032;-78
2023/05/18 00:09:25;;;;;;;10.32;3.30;;;7.10;81.90;;;;;;5011948;28;20444;-78
2023/05/18 00:11:51;;;;;;;12.00;2.45;;;7.20;80.20;;;;;;5010663;28;20432;-77
2023/05/18 00:14:17;;;;;;;9.95;2.88;;;7.10;80.30;;;;;;5010172;28;20501;-79
2023/05/18 00:16:44;;;;;;;8.73;2.72;;;7.10;79.50;;;;;;5010817;28;20033;-78
2023/05/18 00:19:13;;;;;;;12.45;3.38;;;7.00;80.20;;;;;;5011914;28;20137;-77
2023/05/18 00:21:43;;;;;;;8.82;2.92;;;7.00;82.30;;;;;;5013048;28;20037;-78
2023/05/18 00:24:11;;;;;;;16.88;3.47;;;7.00;80.70;;;;;;5041333;28;20030;-77
2023/05/18 00:26:38;;;;;;;9.57;2.58;;;6.90;82.00;;;;;;5011894;28;20104;-78
2023/05/18 00:29:04;;;;;;;10.65;3.70;;;6.80;82.50;;;;;;5040451;28;20083;-78
2023/05/18 00:31:29;;;;;;;16.02;3.03;;;6.60;84.90;;;;;;5011166;28;20037;-77
2023/05/18 00:33:55;;;;;;;16.25;3.88;;;6.60;82.30;;;;;;5011445;28;20037;-78
2023/05/18 00:36:20;;;;;;;11.90;3.13;;;6.50;82.50;;;;;;5004239;28;20056;-77
2023/05/18 00:38:46;;;;;;;9.23;2.53;;;6.70;82.90;;;;;;5011564;28;20095;-78
2023/05/18 00:41:11;;;;;;;9.57;2.90;;;6.70;81.70;;;;;;5043560;28;20037;-77
2023/05/18 00:43:40;;;;;;;11.40;2.88;;;6.50;85.80;;;;;;5010457;28;20119;-78
2023/05/18 00:46:05;;;;;;;11.18;3.20;;;6.40;84.70;;;;;;5011150;28;20048;-78
2023/05/18 00:48:31;;;;;;;10.88;3.30;;;6.30;87.30;;;;;;5028147;28;20118;-78
2023/05/18 00:50:58;;;;;;;12.02;2.70;;;6.10;85.90;;;;;;5012197;28;20045;-77
2023/05/18 00:53:23;;;;;;;10.88;3.55;;;6.40;88.40;;;;;;5010580;28;20032;-78
2023/05/18 00:55:49;;;;;;;8.80;2.63;;;6.30;90.50;;;;;;5026588;28;20028;-77
2023/05/18 00:58:15;;;;;;;10.27;2.88;;;6.30;91.30;;;;;;5010541;28;20051;-78
2023/05/18 01:00:41;;;;;;;12.77;3.75;;;6.50;95.40;;;;;;5011357;28;20572;-77
2023/05/18 01:03:09;;;;;;;20.25;3.67;;;6.30;92.30;;;;;;5021510;28;20028;-78
2023/05/18 01:05:35;;;;;;;8.80;3.50;;;6.10;91.00;;;;;;5011560;28;20036;-78
2023/05/18 01:08:01;;;;;;;11.55;3.50;;;6.30;91.10;;;;;;5004683;28;20021;-79
2023/05/18 01:10:27;;;;;;;12.93;3.55;;;6.10;91.20;;;;;;5012090;28;20025;-77
2023/05/18 01:12:58;;;;;;;10.45;3.50;;;6.10;90.50;;;;;;5010538;28;20070;-77
2023/05/18 01:15:33;;;;;;;13.02;4.38;;;6.00;90.30;;;;;;5025537;28;20040;-77
2023/05/18 01:18:20;;;;;;;11.65;4.43;;;6.00;93.00;;;;;;5010914;28;20033;-78
2023/05/18 01:20:56;;;;;;;9.57;3.15;;;6.00;91.40;;;;;;5026339;28;20036;-77
2023/05/18 01:23:28;;;;;;;12.38;3.55;;;5.90;92.90;;;;;;5045205;28;20589;-77
2023/05/18 01:25:53;;;;;;;11.35;3.67;;;6.00;93.20;;;;;;5044749;28;20055;-78
2023/05/18 01:28:29;;;;;;;9.38;4.15;;;5.70;92.70;;;;;;5043993;28;20485;-77
2023/05/18 01:30:55;;;;;;;14.55;3.80;;;5.70;93.80;;;;;;5026680;28;20567;-77
2023/05/18 01:33:20;;;;;;;14.38;3.88;;;6.40;93.50;;;;;;5024861;28;20021;-78
2023/05/18 01:35:48;;;;;;;16.45;3.88;;;5.60;92.00;;;;;;5010121;28;20060;-78
2023/05/18 01:38:21;;;;;;;14.65;3.95;;;6.20;94.00;;;;;;5010724;28;20143;-77
2023/05/18 01:41:00;;;;;;;9.85;3.78;;;5.50;95.60;;;;;;5009667;28;20108;-78
2023/05/18 01:43:35;;;;;;;11.30;3.72;;;5.50;95.20;;;;;;5010425;28;20485;-78
2023/05/18 01:46:13;;;;;;;11.32;4.18;;;5.60;94.40;;;;;;5026428;28;20078;-78
2023/05/18 01:48:39;;;;;;;16.33;4.82;;;5.50;95.20;;;;;;5022687;28;20073;-78
2023/05/18 01:51:04;;;;;;;13.63;3.80;;;5.40;94.80;;;;;;5008123;28;20031;-78
2023/05/18 01:53:38;;;;;;;11.48;3.97;;;5.40;95.30;;;;;;5011204;28;20381;-78
2023/05/18 01:56:06;;;;;;;15.68;4.07;;;5.10;97.20;;;;;;5008366;28;20029;-78
2023/05/18 01:58:32;;;;;;;11.98;4.05;;;5.50;97.90;;;;;;5026010;28;20546;-79
2023/05/18 02:00:57;;;;;;;15.00;4.18;;;5.50;97.90;;;;;;5010498;28;20128;-78
2023/05/18 02:03:23;;;;;;;10.52;4.25;;;5.40;96.10;;;;;;5024062;28;20049;-78
2023/05/18 02:05:48;;;;;;;10.93;4.72;;;5.30;98.10;;;;;;5010162;28;20485;-78
2023/05/18 02:08:15;;;;;;;16.75;5.28;;;5.30;97.80;;;;;;5009725;28;20397;-78
2023/05/18 02:10:40;;;;;;;20.38;4.43;;;5.20;98.40;;;;;;5010328;28;20025;-77
2023/05/18 02:13:06;;;;;;;16.17;4.50;;;5.30;99.90;;;;;;5022536;28;20449;-78
2023/05/18 02:15:31;;;;;;;13.48;4.68;;;5.20;99.90;;;;;;5008582;28;20017;-78
2023/05/18 02:17:57;;;;;;;16.10;4.55;;;5.50;99.90;;;;;;5006962;28;20113;-78
2023/05/18 02:20:22;;;;;;;11.10;4.25;;;5.00;99.90;;;;;;5022318;28;20033;-78
2023/05/18 02:22:48;;;;;;;11.82;4.18;;;5.10;99.90;;;;;;5009912;28;20041;-78
2023/05/18 02:25:13;;;;;;;11.88;4.35;;;5.20;99.90;;;;;;5009436;28;20029;-78
2023/05/18 02:27:39;;;;;;;12.73;4.65;;;5.10;99.90;;;;;;5008981;28;20080;-78
2023/05/18 02:30:07;;;;;;;9.70;4.15;;;5.20;99.90;;;;;;5007112;28;20033;-78
2023/05/18 02:32:41;;;;;;;14.05;4.88;;;5.10;99.90;;;;;;5026073;28;20459;-77
2023/05/18 02:35:07;;;;;;;10.93;4.25;;;5.10;99.90;;;;;;5010566;28;20075;-78
2023/05/18 02:37:41;;;;;;;14.52;4.82;;;5.00;99.90;;;;;;5035746;28;20106;-78
2023/05/18 02:40:09;;;;;;;19.85;5.13;;;5.00;99.90;;;;;;5010374;28;20044;-78
2023/05/18 02:42:35;;;;;;;10.88;4.28;;;4.90;99.90;;;;;;5010312;28;20040;-77
2023/05/18 02:45:01;;;;;;;14.40;5.05;;;4.70;99.90;;;;;;5042509;28;20025;-77
2023/05/18 02:47:27;;;;;;;11.65;4.97;;;4.80;99.90;;;;;;5025265;28;20496;-77
2023/05/18 02:49:52;;;;;;;9.75;5.38;;;4.90;99.90;;;;;;5007879;28;20075;-77
2023/05/18 02:52:18;;;;;;;13.75;4.90;;;5.10;99.90;;;;;;5005296;28;20069;-77
2023/05/18 02:54:43;;;;;;;11.40;5.13;;;4.80;99.90;;;;;;5009709;28;20087;-78
2023/05/18 02:57:10;;;;;;;13.02;6.20;;;4.70;99.90;;;;;;5023396;28;20389;-78
2023/05/18 02:59:36;;;;;;;13.55;5.40;;;4.90;99.90;;;;;;5024319;28;20045;-78
2023/05/18 03:02:02;;;;;;;13.63;5.85;;;4.80;99.90;;;;;;5009767;28;20022;-78
2023/05/18 03:04:27;;;;;;;11.38;5.00;;;4.70;99.90;;;;;;5026100;28;20040;-77
2023/05/18 03:06:53;;;;;;;17.25;6.20;;;4.60;99.90;;;;;;5025936;28;20084;-78
2023/05/18 03:09:18;;;;;;;17.98;6.45;;;4.60;99.90;;;;;;5025403;28;20064;-79
2023/05/18 03:11:44;;;;;;;16.52;6.05;;;4.60;99.90;;;;;;5043501;28;20768;-78
2023/05/18 03:14:10;;;;;;;11.90;6.07;;;5.30;99.90;;;;;;5009047;28;20041;-78
2023/05/18 03:16:37;;;;;;;16.80;6.38;;;4.60;99.90;;;;;;5006766;28;20041;-78
2023/05/18 03:19:03;;;;;;;16.40;5.90;;;4.60;99.90;;;;;;5025183;28;20044;-79
2023/05/18 03:21:32;;;;;;;12.82;5.72;;;4.60;99.90;;;;;;5041773;28;20115;-78
2023/05/18 03:23:58;;;;;;;17.88;6.75;;;4.50;99.90;;;;;;5010105;28;20614;-78
2023/05/18 03:26:25;;;;;;;18.35;6.35;;;4.50;99.90;;;;;;5024089;28;20029;-78
2023/05/18 03:28:50;;;;;;;18.90;7.00;;;4.50;99.90;;;;;;5024863;28;20033;-78
2023/05/18 03:31:16;;;;;;;15.52;5.80;;;4.30;99.90;;;;;;5027578;28;20512;-77
2023/05/18 03:33:42;;;;;;;18.17;6.15;;;4.30;99.90;;;;;;5026348;28;20036;-78
2023/05/18 03:36:07;;;;;;;19.95;6.68;;;4.30;99.90;;;;;;5011398;28;20431;-78
2023/05/18 03:38:33;;;;;;;14.05;6.10;;;4.30;99.90;;;;;;5020446;28;20473;-79
2023/05/18 03:40:59;;;;;;;16.90;6.60;;;4.30;99.90;;;;;;5028469;28;20108;-78
2023/05/18 03:43:24;;;;;;;13.60;6.80;;;4.30;99.90;;;;;;5012592;28;20385;-77
2023/05/18 03:45:50;;;;;;;19.42;7.60;;;4.30;99.90;;;;;;5044733;28;20052;-78
2023/05/18 03:48:16;;;;;;;19.52;7.55;;;4.30;99.90;;;;;;5028563;28;20054;-78
2023/05/18 03:50:42;;;;;;;15.85;6.68;;;4.30;99.90;;;;;;5028537;28;20662;-77
2023/05/18 03:53:08;;;;;;;11.45;6.30;;;4.20;99.90;;;;;;5022053;28;20381;-78
2023/05/18 03:55:33;;;;;;;19.15;7.80;;;4.20;99.90;;;;;;5029279;28;20025;-78
2023/05/18 03:57:59;;;;;;;17.48;7.75;;;4.30;99.90;;;;;;5030264;28;20048;-78
2023/05/18 04:00:25;;;;;;;11.63;6.95;;;4.30;99.90;;;;;;5029894;28;20507;-77
2023/05/18 04:02:50;;;;;;;14.05;7.00;;;4.30;99.90;;;;;;5013579;28;20037;-77
2023/05/18 04:05:16;;;;;;;18.10;8.10;;;4.40;99.90;;;;;;5023843;28;20512;-78
2023/05/18 04:07:45;;;;;;;18.08;7.28;;;4.30;99.90;;;;;;5019931;28;20811;-78
2023/05/18 04:10:11;;;;;;;21.17;8.10;;;4.40;99.90;;;;;;5028346;28;20075;-77
2023/05/18 04:12:37;;;;;;;18.55;7.07;;;4.30;99.90;;;;;;5045429;28;20079;-78
2023/05/18 04:15:02;;;;;;;14.10;6.57;;;4.40;99.90;;;;;;5011794;28;20037;-77
2023/05/18 04:17:28;;;;;;;18.73;7.85;;;4.30;99.90;;;;;;5012950;28;20106;-77
2023/05/18 04:19:54;;;;;;;18.65;7.47;;;4.40;99.90;;;;;;5029141;28;20037;-78
2023/05/18 04:22:20;;;;;;;16.67;8.00;;;4.50;99.90;;;;;;5029470;28;20171;-77
2023/05/18 04:24:46;;;;;;;24.95;7.55;;;4.60;99.90;;;;;;5013275;28;20729;-78
2023/05/18 04:27:12;;;;;;;22.35;8.13;;;4.80;99.90;;;;;;5029294;28;20033;-78
2023/05/18 04:29:38;;;;;;;18.50;7.72;;;4.90;99.90;;;;;;5012973;28;20505;-77
2023/05/18 04:32:06;;;;;;;14.95;7.93;;;4.90;99.90;;;;;;5012215;28;20105;-78
2023/05/18 04:34:34;;;;;;;15.30;7.68;;;5.00;99.90;;;;;;5029422;28;20124;-77
2023/05/18 04:36:59;;;;;;;22.95;7.65;;;5.10;99.90;;;;;;5028739;28;20094;-78
2023/05/18 04:39:26;;;;;;;15.20;7.80;;;5.30;99.90;;;;;;5028029;28;20036;-78
2023/05/18 04:41:57;;;;;;;12.77;7.38;;;5.40;99.90;;;;;;5028078;28;20104;-78
2023/05/18 04:44:29;;;;;;;15.05;7.63;;;5.40;99.90;;;;;;5044561;28;20554;-77
2023/05/18 04:46:55;;;;;;;13.23;7.43;;;5.60;99.90;;;;;;5028004;28;20091;-78
2023/05/18 04:49:21;;;;;;;17.48;7.45;;;5.70;99.90;;;;;;5012566;28;20059;-78
2023/05/18 04:51:54;;;;;;;15.02;7.50;;;5.90;99.90;;;;;;5012602;28;20041;-78
2023/05/18 04:54:31;;;;;;;15.82;6.88;;;6.10;99.90;;;;;;5029670;28;20032;-77
2023/05/18 04:56:57;;;;;;;13.25;6.43;;;6.10;99.90;;;;;;5044465;28;20440;-77
2023/05/18 04:59:25;;;;;;;16.00;6.43;;;6.30;99.90;;;;;;5009099;28;20033;-78
2023/05/18 05:01:51;;;;;;;14.70;6.30;;;6.50;99.90;;;;;;5028788;28;20041;-78
2023/05/18 05:04:16;;;;;;;14.85;6.80;;;6.70;99.90;;;;;;5028995;28;20033;-77
2023/05/18 05:06:42;;;;;;;16.80;6.13;;;6.90;99.90;;;;;;5012164;28;20040;-77
2023/05/18 05:09:08;;;;;;;19.92;7.07;;;6.80;99.90;;;;;;5027243;28;20049;-78
2023/05/18 05:11:33;;;;;;;14.35;5.97;;;7.20;99.90;;;;;;5006488;28;20029;-77
2023/05/18 05:14:01;;;;;;;14.40;6.97;;;7.40;99.90;;;;;;5011989;28;20032;-78
2023/05/18 05:16:26;;;;;;;13.95;5.70;;;7.60;99.90;;;;;;5027242;28;20033;-78
2023/05/18 05:18:52;;;;;;;15.15;5.47;;;7.80;99.90;;;;;;5011515;28;20089;-78
2023/05/18 05:21:17;;;;;;;16.00;5.47;;;8.00;99.90;;;;;;5011165;28;20037;-78
2023/05/18 05:23:44;;;;;;;14.52;5.57;;;7.90;99.90;;;;;;5026423;28;20033;-77
2023/05/18 05:26:09;;;;;;;13.40;6.05;;;8.00;99.90;;;;;;5011704;28;20516;-77
2023/05/18 05:28:35;;;;;;;11.45;5.50;;;8.60;99.90;;;;;;5028113;28;20116;-78
2023/05/18 05:31:01;;;;;;;15.55;6.07;;;8.80;99.90;;;;;;5011376;28;20475;-77
2023/05/18 05:33:27;;;;;;;16.70;5.85;;;9.00;99.90;;;;;;5004487;28;20071;-77
2023/05/18 05:35:52;;;;;;;13.18;6.10;;;9.20;99.90;;;;;;5026504;28;20135;-77
2023/05/18 05:38:18;;;;;;;8.70;4.65;;;9.40;99.90;;;;;;5026824;28;20044;-77
2023/05/18 05:40:43;;;;;;;19.67;6.07;;;9.70;99.90;;;;;;5011023;28;20418;-78
2023/05/18 05:43:09;;;;;;;9.52;5.03;;;9.80;99.90;;;;;;5027957;28;20370;-77
2023/05/18 05:45:34;;;;;;;9.32;5.53;;;10.00;99.90;;;;;;5011521;28;20661;-78
2023/05/18 05:48:00;;;;;;;18.70;5.00;;;10.20;99.90;;;;;;5027083;28;20089;-77
2023/05/18 05:50:26;;;;;;;13.20;5.25;;;10.50;99.90;;;;;;5028133;28;20082;-78
2023/05/18 05:52:52;;;;;;;9.50;5.10;;;10.60;99.90;;;;;;5027708;28;20043;-80
2023/05/18 05:55:17;;;;;;;11.73;4.70;;;10.80;99.90;;;;;;5044546;28;20033;-78
2023/05/18 05:57:43;;;;;;;13.68;5.30;;;11.00;99.90;;;;;;5009837;28;20029;-78
2023/05/18 06:00:12;;;;;;;11.15;4.85;;;11.20;99.90;;;;;;5027286;28;20037;-78
2023/05/18 06:02:38;;;;;;;15.40;4.68;;;11.40;99.90;;;;;;5006676;28;20116;-77
2023/05/18 06:05:06;;;;;;;13.25;4.80;;;12.10;99.90;;;;;;5023842;28;20116;-77
2023/05/18 06:07:31;;;;;;;11.73;4.38;;;11.80;99.90;;;;;;5005581;28;20094;-78
2023/05/18 06:09:57;;;;;;;16.83;5.50;;;12.10;99.90;;;;;;5010812;28;20435;-77
2023/05/18 06:12:23;;;;;;;21.73;5.28;;;12.20;99.90;;;;;;5006257;28;20550;-78
2023/05/18 06:14:48;;;;;;;9.00;3.42;;;12.40;99.90;;;;;;5027381;28;20696;-78
2023/05/18 06:17:14;;;;;;;9.93;4.05;;;12.60;99.50;;;;;;5026608;28;20041;-77
2023/05/18 06:19:39;;;;;;;11.07;4.95;;;12.60;99.50;;;;;;5043987;28;20029;-78
2023/05/18 06:22:05;;;;;;;8.88;3.97;;;12.80;98.80;;;;;;5027228;28;20363;-78
2023/05/18 06:24:31;;;;;;;8.27;3.58;;;13.10;98.10;;;;;;5022783;28;20167;-78
2023/05/18 06:26:56;;;;;;;8.27;3.53;;;13.20;98.20;;;;;;5026726;28;20453;-77
2023/05/18 06:29:22;;;;;;;7.53;3.50;;;13.30;97.40;;;;;;5024127;28;20639;-77
2023/05/18 06:31:47;;;;;;;7.57;3.60;;;13.50;97.00;;;;;;5009991;28;20129;-76
2023/05/18 06:34:13;;;;;;;6.18;3.15;;;14.00;96.60;;;;;;5025508;28;20033;-77
2023/05/18 06:36:39;;;;;;;9.00;4.00;;;13.70;96.80;;;;;;5041262;28;20040;-77
2023/05/18 06:39:04;;;;;;;13.25;3.28;;;13.90;96.00;;;;;;5009976;28;20033;-77
2023/05/18 06:41:30;;;;;;;7.68;4.18;;;14.00;95.80;;;;;;5025100;28;20108;-77
2023/05/18 06:43:59;;;;;;;11.10;3.63;;;14.20;95.60;;;;;;5025656;28;20124;-77
2023/05/18 06:46:25;;;;;;;5.63;3.42;;;14.40;95.10;;;;;;5003635;28;20087;-77
2023/05/18 06:48:51;;;;;;;14.18;3.85;;;14.50;93.80;;;;;;5041945;28;20029;-77
2023/05/18 06:51:16;;;;;;;12.57;4.65;;;14.70;94.10;;;;;;5019051;28;20090;-77
2023/05/18 06:53:42;;;;;;;11.32;3.30;;;14.70;94.10;;;;;;5027348;28;20032;-77
2023/05/18 06:56:10;;;;;;;8.20;3.10;;;14.90;93.60;;;;;;5009613;28;20026;-78
2023/05/18 06:58:36;;;;;;;11.25;3.70;;;15.10;93.70;;;;;;5009977;28;20397;-77
2023/05/18 07:01:01;;;;;;;10.27;3.15;;;15.20;93.30;;;;;;5009878;28;20079;-77
2023/05/18 07:03:28;;;;;;;9.60;3.90;;;15.30;92.10;;;;;;5026514;28;20021;-77
2023/05/18 07:05:54;;;;;;;7.07;3.03;;;15.50;91.40;;;;;;5013297;28;20489;-77
2023/05/18 07:08:19;;;;;;;6.97;3.08;;;15.60;91.50;;;;;;5014373;28;20036;-77
2023/05/18 07:10:45;;;;;;;15.75;3.55;;;15.80;91.30;;;;;;5030314;28;20040;-77
2023/05/18 07:13:11;;;;;;;7.80;2.60;;;15.90;90.60;;;;;;5030002;28;21135;-77
2023/05/18 07:15:37;;;;;;;11.00;3.60;;;16.00;90.90;;;;;;5047174;28;20090;-78
2023/05/18 07:18:03;;;;;;;10.77;3.95;;;16.20;90.30;;;;;;5029633;28;20063;-76
2023/05/18 07:20:28;;;;;;;8.35;3.25;;;16.20;89.80;;;;;;5030323;28;20036;-78
2023/05/18 07:22:54;;;;;;;11.80;4.47;;;16.40;89.10;;;;;;5048463;28;20057;-77
2023/05/18 07:25:20;;;;;;;8.82;3.08;;;16.50;87.50;;;;;;5014376;28;20036;-77
2023/05/18 07:27:46;;;;;;;5.95;2.70;;;16.60;87.20;;;;;;5030365;28;20032;-77
2023/05/18 07:30:11;;;;;;;10.27;3.42;;;16.80;86.50;;;;;;5045158;28;20124;-76
2023/05/18 07:32:37;;;;;;;9.45;3.22;;;16.50;87.70;;;;;;5012959;28;20067;-79
2023/05/18 07:35:03;;;;;;;10.65;3.03;;;17.00;86.30;;;;;;5013248;28;20041;-76
2023/05/18 07:37:29;;;;;;;6.88;3.00;;;17.20;84.50;;;;;;5011777;28;20029;-77
2023/05/18 07:39:55;;;;;;;10.50;3.75;;;17.20;85.70;;;;;;5044437;28;20483;-77
2023/05/18 07:42:21;;;;;;;8.40;3.10;;;17.50;82.30;;;;;;5046016;28;20021;-77
2023/05/18 07:44:46;;;;;;;6.53;2.78;;;17.30;84.80;;;;;;5018862;28;20081;-77
2023/05/18 07:47:12;;;;;;;6.45;2.88;;;17.50;83.60;;;;;;5044793;28;20033;-77
2023/05/18 07:49:41;;;;;;;5.18;2.10;;;17.70;79.90;;;;;;5028744;28;20418;-78
2023/05/18 07:52:07;;;;;;;12.93;3.33;;;17.80;80.00;;;;;;5046213;28;20561;-79
2023/05/18 07:54:33;;;;;;;10.00;2.85;;;17.80;80.40;;;;;;5047318;28;20111;-77
2023/05/18 07:56:58;;;;;;;9.30;2.92;;;17.90;80.50;;;;;;5029185;28;20044;-77
2023/05/18 07:59:24;;;;;;;6.78;2.40;;;18.10;79.80;;;;;;5028344;28;20024;-77
2023/05/18 08:01:50;;;;;;;10.52;3.13;;;18.30;75.20;;;;;;5011978;28;20033;-77
2023/05/18 08:04:15;;;;;;;12.40;2.92;;;18.30;73.30;;;;;;5028043;28;20103;-76
2023/05/18 08:06:41;;;;;;;6.13;2.53;;;18.30;74.10;;;;;;5044804;28;20401;-77
2023/05/18 08:09:06;;;;;;;8.43;3.35;;;18.40;74.90;;;;;;5028070;28;20469;-77
2023/05/18 08:11:32;;;;;;;7.45;2.60;;;18.50;74.70;;;;;;5027808;28;20079;-77
2023/05/18 08:13:58;;;;;;;7.88;2.78;;;18.40;76.00;;;;;;5043752;28;20056;-77
2023/05/18 08:16:23;;;;;;;9.60;3.20;;;18.70;74.40;;;;;;5003637;28;20039;-77
2023/05/18 08:18:49;;;;;;;7.13;3.22;;;18.70;75.40;;;;;;5011575;28;20366;-77
2023/05/18 08:21:15;;;;;;;10.82;3.10;;;18.80;73.50;;;;;;5010961;28;20725;-78
2023/05/18 08:23:41;;;;;;;7.85;2.50;;;19.10;70.20;;;;;;5043311;28;20496;-77
2023/05/18 08:26:07;;;;;;;11.05;3.22;;;18.90;70.40;;;;;;5021991;28;20025;-77
2023/05/18 08:28:33;;;;;;;6.97;2.38;;;19.00;70.70;;;;;;5027807;28;20025;-78
2023/05/18 08:30:58;;;;;;;19.90;3.22;;;19.20;70.50;;;;;;5010817;28;20037;-77
2023/05/18 08:33:24;;;;;;;9.00;2.92;;;19.20;68.00;;;;;;5028261;28;20032;-77
2023/05/18 08:35:50;;;;;;;10.85;3.30;;;19.30;68.80;;;;;;5028890;28;20060;-77
2023/05/18 08:38:15;;;;;;;10.13;3.40;;;19.40;67.70;;;;;;5045668;28;20037;-77
2023/05/18 08:41:07;;;;;;;8.48;3.05;;;19.40;68.30;;;;;;5026339;28;20052;-78
2023/05/18 08:43:34;;;;;;;11.07;3.35;;;19.70;68.30;;;;;;5040908;28;20037;-78
2023/05/18 08:46:32;;;;;;;10.02;3.40;;;19.70;66.70;;;;;;5011378;28;20064;-78
2023/05/18 08:48:58;;;;;;;6.82;2.40;;;19.70;66.20;;;;;;5043467;28;20090;-78
2023/05/18 08:51:23;;;;;;;9.20;3.20;;;19.80;66.90;;;;;;5026608;28;20033;-77
2023/05/18 08:53:52;;;;;;;10.50;3.15;;;19.90;67.10;;;;;;5045532;28;20029;-78
2023/05/18 08:56:21;;;;;;;7.75;3.08;;;20.00;66.90;;;;;;5028358;28;20035;-78
2023/05/18 08:58:47;;;;;;;5.10;2.67;;;20.00;68.60;;;;;;5043353;28;20112;-78
2023/05/18 09:01:13;;;;;;;8.52;2.70;;;20.20;65.90;;;;;;5028794;28;20124;-77
2023/05/18 09:03:39;;;;;;;11.70;2.85;;;20.30;65.40;;;;;;5028825;28;20243;-80
2023/05/18 09:06:05;;;;;;;8.88;2.90;;;20.50;64.40;;;;;;5012171;28;20037;-78
2023/05/18 09:08:31;;;;;;;6.35;2.30;;;20.60;64.70;;;;;;5043033;28;20334;-78
2023/05/18 09:10:57;;;;;;;7.00;2.42;;;20.60;64.00;;;;;;5010554;28;20025;-78
2023/05/18 09:13:23;;;;;;;7.93;2.67;;;20.70;63.70;;;;;;5024268;28;20052;-77
2023/05/18 09:15:50;;;;;;;4.55;2.45;;;20.80;62.30;;;;;;5026567;28;20033;-76
2023/05/18 09:18:15;;;;;;;7.68;3.35;;;20.80;64.20;;;;;;5042529;28;20120;-77
2023/05/18 09:20:41;;;;;;;9.05;3.58;;;21.10;62.10;;;;;;5045405;28;20107;-77
2023/05/18 09:23:06;;;;;;;8.00;2.97;;;21.10;60.30;;;;;;5027709;28;20124;-76
2023/05/18 09:25:35;;;;;;;7.53;3.15;;;21.10;60.80;;;;;;5026619;28;20087;-76
2023/05/18 09:28:03;;;;;;;6.82;2.47;;;21.20;58.90;;;;;;5026833;28;20033;-78
2023/05/18 09:30:29;;;;;;;9.85;2.60;;;21.00;60.20;;;;;;5026124;28;20122;-77
2023/05/18 09:32:55;;;;;;;5.70;2.50;;;21.10;61.90;;;;;;5042353;28;20754;-77
2023/05/18 09:35:21;;;;;;;9.15;2.97;;;21.30;62.80;;;;;;5026634;28;20037;-77
2023/05/18 09:37:47;;;;;;;13.15;3.28;;;21.40;60.60;;;;;;5025992;28;20029;-77
2023/05/18 09:40:13;;;;;;;6.13;2.50;;;21.40;59.60;;;;;;5009379;28;20491;-77
2023/05/18 09:42:41;;;;;;;11.02;2.80;;;21.50;59.40;;;;;;5027604;28;20029;-77
2023/05/18 09:45:22;;;;;;;9.10;3.03;;;21.70;60.40;;;;;;5009948;28;20048;-77
2023/05/18 09:47:51;;;;;;;7.85;2.53;;;21.80;60.30;;;;;;5026405;28;20528;-77
2023/05/18 09:50:20;;;;;;;6.57;2.28;;;21.90;60.50;;;;;;5010183;28;20033;-77
2023/05/18 09:52:46;;;;;;;8.90;2.85;;;22.00;62.70;;;;;;5041886;28;20420;-77
2023/05/18 09:55:13;;;;;;;8.85;2.40;;;22.20;61.20;;;;;;5009963;28;20044;-77
2023/05/18 09:57:43;;;;;;;8.80;2.47;;;22.30;60.70;;;;;;5026943;28;20037;-77
2023/05/18 10:00:10;;;;;;;12.02;3.05;;;22.30;60.80;;;;;;5026988;28;20128;-77
2023/05/18 10:02:40;;;;;;;9.68;2.67;;;22.50;57.40;;;;;;5027080;28;20029;-77
2023/05/18 10:05:11;;;;;;;15.07;3.58;;;22.60;57.60;;;;;;5043121;28;20415;-77
2023/05/18 10:07:36;;;;;;;11.85;3.22;;;22.70;56.70;;;;;;5041165;28;20527;-77
2023/05/18 10:10:02;;;;;;;11.30;3.65;;;22.80;56.80;;;;;;5025871;28;20025;-77
2023/05/18 10:12:28;;;;;;;7.72;2.70;;;22.80;57.80;;;;;;5009671;28;20048;-77
2023/05/18 10:14:54;;;;;;;9.25;3.08;;;23.00;57.10;;;;;;5025785;28;20029;-77
2023/05/18 10:17:20;;;;;;;8.13;2.70;;;23.10;57.90;;;;;;5037106;28;20045;-77
2023/05/18 10:19:47;;;;;;;9.48;3.58;;;23.20;58.20;;;;;;5042386;28;20496;-77
2023/05/18 10:22:14;;;;;;;5.60;2.58;;;23.50;55.40;;;;;;5041757;28;20615;-78
2023/05/18 10:24:42;;;;;;;9.55;3.78;;;23.60;56.60;;;;;;5043537;28;20706;-77
2023/05/18 10:27:08;;;;;;;9.18;3.05;;;23.60;54.80;;;;;;5008638;28;20568;-77
2023/05/18 10:29:37;;;;;;;7.72;2.90;;;23.60;55.20;;;;;;5008521;28;20480;-77
2023/05/18 10:32:03;;;;;;;4.75;2.90;;;23.60;55.60;;;;;;5009508;28;20063;-77
2023/05/18 10:34:32;;;;;;;11.30;2.88;;;23.60;53.20;;;;;;5026177;28;20033;-77
2023/05/18 10:36:59;;;;;;;7.57;2.72;;;23.50;53.00;;;;;;5007481;28;20067;-78
2023/05/18 10:39:25;;;;;;;13.13;3.95;;;23.50;55.60;;;;;;5019706;28;20033;-79
2023/05/18 10:41:51;;;;;;;7.15;2.72;;;;;;;;;;5025657;28;20067;-77
2023/05/18 10:44:16;;;;;;;10.48;3.28;;;23.60;54.10;;;;;;5041510;28;20055;-76
2023/05/18 10:46:42;;;;;;;11.30;3.33;;;23.60;54.40;;;;;;5042727;28;20334;-77
2023/05/18 10:49:12;;;;;;;7.10;2.70;;;23.80;54.30;;;;;;5025677;28;20044;-76
2023/05/18 10:51:39;;;;;;;5.15;2.30;;;24.10;55.00;;;;;;5010660;28;20507;-76
2023/05/18 10:54:12;;;;;;;8.13;3.20;;;24.10;56.00;;;;;;5024843;28;20037;-76
2023/05/18 10:56:46;;;;;;;9.90;3.58;;;24.20;54.70;;;;;;5024842;28;20037;-77
2023/05/18 10:59:12;;;;;;;11.38;3.60;;;24.30;52.60;;;;;;5025765;28;20086;-77
2023/05/18 11:01:37;;;;;;;6.60;2.88;;;24.40;52.40;;;;;;5021363;28;20033;-77
2023/05/18 11:04:03;;;;;;;7.07;3.03;;;24.50;52.90;;;;;;5008281;28;20639;-76
2023/05/18 11:06:30;;;;;;;7.03;3.22;;;24.50;53.30;;;;;;5041105;28;20029;-76
2023/05/18 11:08:55;;;;;;;8.35;4.03;;;24.60;51.70;;;;;;5025426;28;20028;-76
2023/05/18 11:11:27;;;;;;;7.18;3.08;;;24.70;49.80;;;;;;5024349;28;20367;-76
2023/05/18 11:13:52;;;;;;;8.25;3.08;;;24.70;53.30;;;;;;5025591;28;20025;-76
2023/05/18 11:16:18;;;;;;;5.72;2.40;;;24.90;54.40;;;;;;5042604;28;20038;-77
2023/05/18 11:18:48;;;;;;;4.82;2.22;;;25.10;53.80;;;;;;5010436;28;20071;-77
2023/05/18 11:21:19;;;;;;;8.55;2.45;;;25.40;54.40;;;;;;5042462;28;20029;-77
2023/05/18 11:24:16;;;;;;;9.30;3.08;;;25.40;53.70;;;;;;5044633;28;20040;-77
2023/05/18 11:26:46;;;;;;;7.22;2.13;;;25.50;53.20;;;;;;5038658;28;20083;-78
2023/05/18 11:29:22;;;;;;;11.40;3.88;;;25.50;53.40;;;;;;5023388;28;20055;-77
2023/05/18 11:31:51;;;;;;;8.68;2.80;;;25.70;50.60;;;;;;5041047;28;20029;-77
2023/05/18 11:34:36;;;;;;;6.28;3.22;;;25.70;52.10;;;;;;5026536;28;20029;-77
2023/05/18 11:37:02;;;;;;;8.20;2.97;;;25.70;49.90;;;;;;5009029;28;20506;-79
2023/05/18 11:39:28;;;;;;;10.07;3.50;;;25.70;50.00;;;;;;5026612;28;20033;-76
2023/05/18 11:42:00;;;;;;;9.43;3.13;;;25.60;50.10;;;;;;5009929;28;20112;-76
2023/05/18 11:44:29;;;;;;;8.32;3.20;;;25.40;49.70;;;;;;5036731;28;20030;-75
2023/05/18 11:46:55;;;;;;;7.90;2.88;;;25.40;50.40;;;;;;5042734;28;20394;-75
2023/05/18 11:49:25;;;;;;;10.13;3.65;;;25.50;50.30;;;;;;5041990;28;20029;-75
2023/05/18 11:52:22;;;;;;;12.63;3.38;;;25.30;49.60;;;;;;5029928;28;20017;-76
2023/05/18 11:54:55;;;;;;;5.97;3.53;;;25.40;50.90;;;;;;5046000;28;20033;-75
2023/05/18 11:57:32;;;;;;;6.43;3.08;;;25.60;49.90;;;;;;5012367;28;20037;-79
2023/05/18 11:59:58;;;;;;;12.20;3.53;;;25.50;49.10;;;;;;5045804;28;20485;-78
2023/05/18 12:02:25;;;;;;;8.15;2.45;;;25.60;48.80;;;;;;5045509;28;20059;-77
2023/05/18 12:04:55;;;;;;;9.07;3.50;;;25.80;51.00;;;;;;5013494;28;20119;-78
2023/05/18 12:07:21;;;;;;;7.90;2.85;;;25.80;49.70;;;;;;5045421;28;20064;-78
2023/05/18 12:09:46;;;;;;;7.22;3.78;;;25.80;50.00;;;;;;5026153;28;20061;-77
2023/05/18 12:12:15;;;;;;;7.50;3.55;;;25.60;49.10;;;;;;5027931;28;20098;-78
2023/05/18 12:14:42;;;;;;;12.93;3.60;;;25.40;48.40;;;;;;5027975;28;20029;-77
2023/05/18 12:17:09;;;;;;;13.40;2.95;;;25.40;47.80;;;;;;5028534;28;20608;-77
2023/05/18 12:19:42;;;;;;;8.25;3.83;;;25.40;50.20;;;;;;5028195;28;20052;-78
2023/05/18 12:22:08;;;;;;;10.65;3.33;;;25.60;47.00;;;;;;5046166;28;20460;-78
2023/05/18 12:24:34;;;;;;;11.77;3.40;;;25.50;48.90;;;;;;5010661;28;20029;-78
2023/05/18 12:27:03;;;;;;;8.40;3.13;;;25.60;48.10;;;;;;5045235;28;20511;-77
2023/05/18 12:29:29;;;;;;;8.48;2.95;;;25.50;47.30;;;;;;5029869;28;20456;-77
2023/05/18 12:31:54;;;;;;;7.38;3.13;;;25.50;49.70;;;;;;5029029;28;20087;-77
2023/05/18 12:34:20;;;;;;;10.13;3.38;;;25.70;49.20;;;;;;5012634;28;20735;-78
2023/05/18 12:36:52;;;;;;;9.30;3.40;;;25.60;50.10;;;;;;5029345;28;20041;-78
2023/05/18 12:39:18;;;;;;;11.73;2.60;;;25.80;48.50;;;;;;5021548;28;20075;-78
2023/05/18 12:41:44;;;;;;;7.65;3.25;;;25.80;48.50;;;;;;5012402;28;20439;-75
2023/05/18 12:44:09;;;;;;;7.45;3.20;;;25.80;47.20;;;;;;5029309;28;20029;-77
2023/05/18 12:46:35;;;;;;;9.18;3.83;;;26.00;48.20;;;;;;5028678;28;20123;-77